createdAt,value
2022-09-21T00:00:39.551Z,0.00
2022-09-21T00:01:39.574Z,0.00
2022-09-21T00:02:39.539Z,0.00
2022-09-21T00:03:39.501Z,0.00
2022-09-21T00:04:39.490Z,0.00
2022-09-21T00:05:39.489Z,0.00
2022-09-21T00:06:39.471Z,0.00
2022-09-21T00:07:39.462Z,0.00
2022-09-21T00:08:39.446Z,0.00
2022-09-21T00:09:39.441Z,0.00
2022-09-21T00:10:39.456Z,0.00
2022-09-21T00:11:39.418Z,0.00
2022-09-21T00:12:39.402Z,0.00
2022-09-21T00:13:39.424Z,0.00
2022-09-21T00:14:39.381Z,0.00
2022-09-21T00:15:39.401Z,0.00
2022-09-21T00:16:39.377Z,0.00
2022-09-21T00:17:40.107Z,0.00
2022-09-21T00:18:39.339Z,0.00
2022-09-21T00:19:39.330Z,0.00
2022-09-21T00:20:39.330Z,0.00
2022-09-21T00:21:39.317Z,0.00
2022-09-21T00:22:39.303Z,0.00
2022-09-21T00:23:39.293Z,0.00
2022-09-21T00:24:39.274Z,0.00
2022-09-21T00:25:39.284Z,0.00
2022-09-21T00:26:39.254Z,0.00
2022-09-21T00:27:39.244Z,0.00
2022-09-21T00:28:39.233Z,0.00
2022-09-21T00:29:39.223Z,0.00
2022-09-21T00:30:39.223Z,0.00
2022-09-21T00:31:39.273Z,0.00
2022-09-21T00:32:39.192Z,0.00
2022-09-21T00:33:39.183Z,0.00
2022-09-21T00:34:39.170Z,0.00
2022-09-21T00:35:39.169Z,0.00
2022-09-21T00:36:39.147Z,0.00
2022-09-21T00:37:39.139Z,0.00
2022-09-21T00:38:39.143Z,0.00
2022-09-21T00:39:39.118Z,0.00
2022-09-21T00:40:39.321Z,0.00
2022-09-21T00:41:39.110Z,0.00
2022-09-21T00:42:39.084Z,0.00
2022-09-21T00:43:39.072Z,0.00
2022-09-21T00:44:39.065Z,0.00
2022-09-21T00:45:39.134Z,0.00
2022-09-21T00:46:39.040Z,0.00
2022-09-21T00:47:39.048Z,0.00
2022-09-21T00:48:39.021Z,0.00
2022-09-21T00:49:39.012Z,0.00
2022-09-21T00:50:39.008Z,0.00
2022-09-21T00:51:38.987Z,0.00
2022-09-21T00:52:38.975Z,0.00
2022-09-21T00:53:38.966Z,0.00
2022-09-21T00:54:38.952Z,0.00
2022-09-21T00:55:38.952Z,0.00
2022-09-21T00:56:38.934Z,0.00
2022-09-21T00:57:38.923Z,0.00
2022-09-21T00:58:38.913Z,0.00
2022-09-21T00:59:39.911Z,0.00
2022-09-21T01:00:38.933Z,0.00
2022-09-21T01:01:38.898Z,0.00
2022-09-21T01:02:38.868Z,0.00
2022-09-21T01:03:38.878Z,0.00
2022-09-21T01:04:38.845Z,0.00
2022-09-21T01:05:38.850Z,0.00
2022-09-21T01:06:38.824Z,0.00
2022-09-21T01:07:38.817Z,0.00
2022-09-21T01:08:38.804Z,0.00
2022-09-21T01:09:38.797Z,0.00
2022-09-21T01:10:38.788Z,0.00
2022-09-21T01:11:38.782Z,0.00
2022-09-21T01:12:38.760Z,0.00
2022-09-21T01:13:38.750Z,0.00
2022-09-21T01:14:38.772Z,0.00
2022-09-21T01:15:38.729Z,0.00
2022-09-21T01:16:38.767Z,0.00
2022-09-21T01:17:38.716Z,0.00
2022-09-21T01:18:38.701Z,0.00
2022-09-21T01:19:38.703Z,0.00
2022-09-21T01:20:38.675Z,0.00
2022-09-21T01:21:38.679Z,0.00
2022-09-21T01:22:38.652Z,0.00
2022-09-21T01:23:38.643Z,0.00
2022-09-21T01:24:38.630Z,0.00
2022-09-21T01:25:38.622Z,0.00
2022-09-21T01:26:38.624Z,0.00
2022-09-21T01:27:38.599Z,0.00
2022-09-21T01:28:38.588Z,0.00
2022-09-21T01:29:38.578Z,0.00
2022-09-21T01:30:38.576Z,0.00
2022-09-21T01:31:38.618Z,0.00
2022-09-21T01:32:38.548Z,0.00
2022-09-21T01:33:38.537Z,0.00
2022-09-21T01:34:38.522Z,0.00
2022-09-21T01:35:38.541Z,0.00
2022-09-21T01:36:38.504Z,0.00
2022-09-21T01:37:38.493Z,0.00
2022-09-21T01:38:38.486Z,0.00
2022-09-21T01:39:38.470Z,0.00
2022-09-21T01:40:38.542Z,0.00
2022-09-21T01:41:38.450Z,0.00
2022-09-21T01:42:38.437Z,0.00
2022-09-21T01:43:38.426Z,0.00
2022-09-21T01:44:38.414Z,0.00
2022-09-21T01:45:38.474Z,0.00
2022-09-21T01:46:38.397Z,0.00
2022-09-21T01:47:38.386Z,0.00
2022-09-21T01:48:38.371Z,0.00
2022-09-21T01:49:38.365Z,0.00
2022-09-21T01:50:38.368Z,0.00
2022-09-21T01:51:38.356Z,0.00
2022-09-21T01:52:38.332Z,0.00
2022-09-21T01:53:38.322Z,0.00
2022-09-21T01:54:38.308Z,0.00
2022-09-21T01:55:38.313Z,0.00
2022-09-21T01:56:38.287Z,0.00
2022-09-21T01:57:38.281Z,0.00
2022-09-21T01:58:38.269Z,0.00
2022-09-21T01:59:38.255Z,0.00
2022-09-21T02:00:38.289Z,0.00
2022-09-21T02:01:38.305Z,0.00
2022-09-21T02:02:38.222Z,0.00
2022-09-21T02:03:38.272Z,0.00
2022-09-21T02:04:38.204Z,0.00
2022-09-21T02:05:38.190Z,0.00
2022-09-21T02:06:38.192Z,0.00
2022-09-21T02:07:38.190Z,0.00
2022-09-21T02:08:38.155Z,0.00
2022-09-21T02:09:38.175Z,0.00
2022-09-21T02:10:38.149Z,0.00
2022-09-21T02:11:38.124Z,0.00
2022-09-21T02:12:38.112Z,0.00
2022-09-21T02:13:38.137Z,0.00
2022-09-21T02:14:38.092Z,0.00
2022-09-21T02:15:38.098Z,0.00
2022-09-21T02:16:38.123Z,0.00
2022-09-21T02:17:38.059Z,0.00
2022-09-21T02:18:38.045Z,0.00
2022-09-21T02:19:38.043Z,0.00
2022-09-21T02:20:38.034Z,0.00
2022-09-21T02:21:38.013Z,0.00
2022-09-21T02:22:38.005Z,0.00
2022-09-21T02:23:38.008Z,0.00
2022-09-21T02:24:37.980Z,0.00
2022-09-21T02:25:37.969Z,0.00
2022-09-21T02:26:37.971Z,0.00
2022-09-21T02:27:37.947Z,0.00
2022-09-21T02:28:37.938Z,0.00
2022-09-21T02:29:37.927Z,0.00
2022-09-21T02:30:37.916Z,0.00
2022-09-21T02:31:37.964Z,0.00
2022-09-21T02:32:37.893Z,0.00
2022-09-21T02:33:37.887Z,0.00
2022-09-21T02:34:37.946Z,0.00
2022-09-21T02:35:37.863Z,0.00
2022-09-21T02:36:37.863Z,0.00
2022-09-21T02:37:37.843Z,0.00
2022-09-21T02:38:37.831Z,0.00
2022-09-21T02:39:37.832Z,0.00
2022-09-21T02:40:37.839Z,0.00
2022-09-21T02:41:37.808Z,0.00
2022-09-21T02:42:37.785Z,0.00
2022-09-21T02:43:37.837Z,0.00
2022-09-21T02:44:37.761Z,0.00
2022-09-21T02:45:37.762Z,0.00
2022-09-21T02:46:37.775Z,0.00
2022-09-21T02:47:37.785Z,0.00
2022-09-21T02:48:37.714Z,0.00
2022-09-21T02:49:37.705Z,0.00
2022-09-21T02:50:37.716Z,0.00
2022-09-21T02:51:37.693Z,0.00
2022-09-21T02:52:37.672Z,0.00
2022-09-21T02:53:37.662Z,0.00
2022-09-21T02:54:37.652Z,0.00
2022-09-21T02:55:37.680Z,0.00
2022-09-21T02:56:37.627Z,0.00
2022-09-21T02:57:37.618Z,0.00
2022-09-21T02:58:37.609Z,0.00
2022-09-21T02:59:37.599Z,0.00
2022-09-21T03:00:37.622Z,0.00
2022-09-21T03:01:37.610Z,0.00
2022-09-21T03:02:37.563Z,0.00
2022-09-21T03:03:37.553Z,0.00
2022-09-21T03:04:37.540Z,0.00
2022-09-21T03:05:37.549Z,0.00
2022-09-21T03:06:37.518Z,0.00
2022-09-21T03:07:37.514Z,0.00
2022-09-21T03:08:37.496Z,0.00
2022-09-21T03:09:37.486Z,0.00
2022-09-21T03:10:37.477Z,0.00
2022-09-21T03:11:37.490Z,0.00
2022-09-21T03:12:37.458Z,0.00
2022-09-21T03:13:37.442Z,0.00
2022-09-21T03:14:37.431Z,0.00
2022-09-21T03:15:37.453Z,0.00
2022-09-21T03:16:37.420Z,0.00
2022-09-21T03:17:37.399Z,0.00
2022-09-21T03:18:37.388Z,0.00
2022-09-21T03:19:37.375Z,0.00
2022-09-21T03:20:37.365Z,0.00
2022-09-21T03:21:41.149Z,0.00
2022-09-21T03:22:38.343Z,0.00
2022-09-21T03:23:37.335Z,0.00
2022-09-21T03:24:37.322Z,0.00
2022-09-21T03:25:37.310Z,0.00
2022-09-21T03:26:37.309Z,0.00
2022-09-21T03:27:37.340Z,0.00
2022-09-21T03:28:37.275Z,0.00
2022-09-21T03:29:37.272Z,0.00
2022-09-21T03:30:37.254Z,0.00
2022-09-21T03:31:37.261Z,0.00
2022-09-21T03:32:37.234Z,0.00
2022-09-21T03:33:37.227Z,0.00
2022-09-21T03:34:37.210Z,0.00
2022-09-21T03:35:37.201Z,0.00
2022-09-21T03:36:37.222Z,0.00
2022-09-21T03:37:41.141Z,0.00
2022-09-21T03:38:37.167Z,0.00
2022-09-21T03:39:37.170Z,0.00
2022-09-21T03:40:37.217Z,0.00
2022-09-21T03:41:37.142Z,0.00
2022-09-21T03:42:37.122Z,0.00
2022-09-21T03:43:37.129Z,0.00
2022-09-21T03:44:37.100Z,0.00
2022-09-21T03:45:37.102Z,0.00
2022-09-21T03:46:37.132Z,0.00
2022-09-21T03:47:37.075Z,0.00
2022-09-21T03:48:37.057Z,0.00
2022-09-21T03:49:37.052Z,0.00
2022-09-21T03:50:37.050Z,0.00
2022-09-21T03:51:37.026Z,0.00
2022-09-21T03:52:37.014Z,0.00
2022-09-21T03:53:37.003Z,0.00
2022-09-21T03:54:36.992Z,0.00
2022-09-21T03:55:36.993Z,0.00
2022-09-21T03:56:36.971Z,0.00
2022-09-21T03:57:36.960Z,0.00
2022-09-21T03:58:36.947Z,0.00
2022-09-21T03:59:36.955Z,0.00
2022-09-21T04:00:36.935Z,0.00
2022-09-21T04:01:36.948Z,0.00
2022-09-21T04:02:37.004Z,0.00
2022-09-21T04:03:36.894Z,0.00
2022-09-21T04:04:36.889Z,0.00
2022-09-21T04:05:36.880Z,0.00
2022-09-21T04:06:36.876Z,0.00
2022-09-21T04:07:36.851Z,0.00
2022-09-21T04:08:36.839Z,0.00
2022-09-21T04:09:36.827Z,0.00
2022-09-21T04:10:36.827Z,0.00
2022-09-21T04:11:36.806Z,0.00
2022-09-21T04:12:36.794Z,0.00
2022-09-21T04:13:36.786Z,0.00
2022-09-21T04:14:36.773Z,0.00
2022-09-21T04:15:36.987Z,0.00
2022-09-21T04:16:36.748Z,0.00
2022-09-21T04:17:36.740Z,0.00
2022-09-21T04:18:36.730Z,0.00
2022-09-21T04:19:36.717Z,0.00
2022-09-21T04:20:36.716Z,0.00
2022-09-21T04:21:36.697Z,0.00
2022-09-21T04:22:41.113Z,0.00
2022-09-21T04:23:37.670Z,0.00
2022-09-21T04:24:36.672Z,0.00
2022-09-21T04:25:36.662Z,0.00
2022-09-21T04:26:36.644Z,0.00
2022-09-21T04:27:36.629Z,0.00
2022-09-21T04:28:36.619Z,0.00
2022-09-21T04:29:36.611Z,0.00
2022-09-21T04:30:37.891Z,0.00
2022-09-21T04:31:36.606Z,0.00
2022-09-21T04:32:36.576Z,0.00
2022-09-21T04:33:36.564Z,0.00
2022-09-21T04:34:36.563Z,0.00
2022-09-21T04:35:36.544Z,0.00
2022-09-21T04:36:36.973Z,0.00
2022-09-21T04:37:36.520Z,0.00
2022-09-21T04:38:36.512Z,0.00
2022-09-21T04:39:36.506Z,0.00
2022-09-21T04:40:36.540Z,0.00
2022-09-21T04:41:36.478Z,0.00
2022-09-21T04:42:36.469Z,0.00
2022-09-21T04:43:36.454Z,0.00
2022-09-21T04:44:36.458Z,0.00
2022-09-21T04:45:36.431Z,0.00
2022-09-21T04:46:36.486Z,0.00
2022-09-21T04:47:36.429Z,0.00
2022-09-21T04:48:36.435Z,0.00
2022-09-21T04:49:36.390Z,5.62
2022-09-21T04:50:36.389Z,5.62
2022-09-21T04:51:36.375Z,5.62
2022-09-21T04:52:36.366Z,5.62
2022-09-21T04:53:36.345Z,5.62
2022-09-21T04:54:36.349Z,5.62
2022-09-21T04:55:36.327Z,5.62
2022-09-21T04:56:36.318Z,5.62
2022-09-21T04:57:36.306Z,5.62
2022-09-21T04:58:36.292Z,11.25
2022-09-21T04:59:36.292Z,11.25
2022-09-21T05:00:36.270Z,11.25
2022-09-21T05:01:36.280Z,11.25
2022-09-21T05:02:36.250Z,11.25
2022-09-21T05:03:36.360Z,11.25
2022-09-21T05:04:36.236Z,11.25
2022-09-21T05:05:36.216Z,16.88
2022-09-21T05:06:36.204Z,16.88
2022-09-21T05:07:36.197Z,16.88
2022-09-21T05:08:36.185Z,16.88
2022-09-21T05:09:36.180Z,22.50
2022-09-21T05:10:36.162Z,22.50
2022-09-21T05:11:36.148Z,22.50
2022-09-21T05:12:40.704Z,22.50
2022-09-21T05:13:36.128Z,22.50
2022-09-21T05:14:36.131Z,22.50
2022-09-21T05:15:36.161Z,22.50
2022-09-21T05:16:36.100Z,28.12
2022-09-21T05:17:36.083Z,28.12
2022-09-21T05:18:36.086Z,33.75
2022-09-21T05:19:36.084Z,33.75
2022-09-21T05:20:36.051Z,33.75
2022-09-21T05:21:36.041Z,33.75
2022-09-21T05:22:36.030Z,33.75
2022-09-21T05:23:36.030Z,33.75
2022-09-21T05:24:36.009Z,33.75
2022-09-21T05:25:35.996Z,33.75
2022-09-21T05:26:35.987Z,33.75
2022-09-21T05:27:35.976Z,33.75
2022-09-21T05:28:39.817Z,39.38
2022-09-21T05:29:35.956Z,39.38
2022-09-21T05:30:35.979Z,39.38
2022-09-21T05:31:36.025Z,39.38
2022-09-21T05:32:35.920Z,39.38
2022-09-21T05:33:35.919Z,39.38
2022-09-21T05:34:36.878Z,39.38
2022-09-21T05:35:35.905Z,45.00
2022-09-21T05:36:35.877Z,45.00
2022-09-21T05:37:35.864Z,45.00
2022-09-21T05:38:35.945Z,45.00
2022-09-21T05:39:35.840Z,50.62
2022-09-21T05:40:35.928Z,50.62
2022-09-21T05:41:35.823Z,56.25
2022-09-21T05:42:35.810Z,50.62
2022-09-21T05:43:35.810Z,56.25
2022-09-21T05:44:35.791Z,56.25
2022-09-21T05:45:35.809Z,56.25
2022-09-21T05:46:35.766Z,56.25
2022-09-21T05:47:35.754Z,56.25
2022-09-21T05:48:35.753Z,61.88
2022-09-21T05:49:35.732Z,61.88
2022-09-21T05:50:35.725Z,61.88
2022-09-21T05:51:35.728Z,67.50
2022-09-21T05:52:35.701Z,73.12
2022-09-21T05:53:35.713Z,78.75
2022-09-21T05:54:35.679Z,90.00
2022-09-21T05:55:35.673Z,95.62
2022-09-21T05:56:35.662Z,95.62
2022-09-21T05:57:35.648Z,106.88
2022-09-21T05:58:35.650Z,106.88
2022-09-21T05:59:35.631Z,112.50
2022-09-21T06:00:35.616Z,118.12
2022-09-21T06:01:35.679Z,129.38
2022-09-21T06:02:35.650Z,151.88
2022-09-21T06:03:35.613Z,151.88
2022-09-21T06:04:35.585Z,157.50
2022-09-21T06:05:35.570Z,146.25
2022-09-21T06:06:35.551Z,157.50
2022-09-21T06:07:35.655Z,135.00
2022-09-21T06:08:35.533Z,129.38
2022-09-21T06:09:38.885Z,123.75
2022-09-21T06:10:36.509Z,123.75
2022-09-21T06:11:35.498Z,118.12
2022-09-21T06:12:35.486Z,112.50
2022-09-21T06:13:35.477Z,112.50
2022-09-21T06:14:35.479Z,112.50
2022-09-21T06:15:35.453Z,118.12
2022-09-21T06:16:35.467Z,118.12
2022-09-21T06:17:40.944Z,123.75
2022-09-21T06:18:35.459Z,129.38
2022-09-21T06:19:35.423Z,129.38
2022-09-21T06:20:35.398Z,135.00
2022-09-21T06:21:35.386Z,135.00
2022-09-21T06:22:35.378Z,140.62
2022-09-21T06:23:35.389Z,146.25
2022-09-21T06:24:35.354Z,146.25
2022-09-21T06:25:35.342Z,146.25
2022-09-21T06:26:35.335Z,146.25
2022-09-21T06:27:35.340Z,146.25
2022-09-21T06:28:35.319Z,146.25
2022-09-21T06:29:35.299Z,140.62
2022-09-21T06:30:35.309Z,140.62
2022-09-21T06:31:35.277Z,135.00
2022-09-21T06:32:35.267Z,135.00
2022-09-21T06:33:35.268Z,129.38
2022-09-21T06:34:35.247Z,129.38
2022-09-21T06:35:35.302Z,123.75
2022-09-21T06:36:35.224Z,123.75
2022-09-21T06:37:35.211Z,118.12
2022-09-21T06:38:35.228Z,112.50
2022-09-21T06:39:35.215Z,106.88
2022-09-21T06:40:35.296Z,106.88
2022-09-21T06:41:35.168Z,101.25
2022-09-21T06:42:35.168Z,101.25
2022-09-21T06:43:35.148Z,101.25
2022-09-21T06:44:35.140Z,95.62
2022-09-21T06:45:35.170Z,95.62
2022-09-21T06:46:35.114Z,101.25
2022-09-21T06:47:35.122Z,101.25
2022-09-21T06:48:35.094Z,101.25
2022-09-21T06:49:38.113Z,101.25
2022-09-21T06:50:36.090Z,101.25
2022-09-21T06:51:35.059Z,95.62
2022-09-21T06:52:35.058Z,95.62
2022-09-21T06:53:35.038Z,101.25
2022-09-21T06:54:35.031Z,101.25
2022-09-21T06:55:35.090Z,101.25
2022-09-21T06:56:35.005Z,101.25
2022-09-21T06:57:35.009Z,101.25
2022-09-21T06:58:34.983Z,101.25
2022-09-21T06:59:34.972Z,101.25
2022-09-21T07:00:34.962Z,101.25
2022-09-21T07:01:35.049Z,106.88
2022-09-21T07:02:34.950Z,112.50
2022-09-21T07:03:34.928Z,118.12
2022-09-21T07:04:34.918Z,118.12
2022-09-21T07:05:34.906Z,118.12
2022-09-21T07:06:34.901Z,118.12
2022-09-21T07:07:34.893Z,118.12
2022-09-21T07:10:35.852Z,129.38
2022-09-21T07:11:34.860Z,135.00
2022-09-21T07:12:34.844Z,135.00
2022-09-21T07:13:34.819Z,135.00
2022-09-21T07:14:34.811Z,140.62
2022-09-21T07:15:34.801Z,151.88
2022-09-21T07:16:34.857Z,163.12
2022-09-21T07:17:34.788Z,157.50
2022-09-21T07:18:42.546Z,151.88
2022-09-21T07:19:35.754Z,151.88
2022-09-21T07:20:34.748Z,157.50
2022-09-21T07:21:34.734Z,157.50
2022-09-21T07:22:34.754Z,163.12
2022-09-21T07:23:34.712Z,168.75
2022-09-21T07:24:34.763Z,174.38
2022-09-21T07:25:34.694Z,185.62
2022-09-21T07:26:34.681Z,191.25
2022-09-21T07:27:34.698Z,208.12
2022-09-21T07:28:34.656Z,225.00
2022-09-21T07:29:34.646Z,241.88
2022-09-21T07:30:34.636Z,264.38
2022-09-21T07:31:34.659Z,258.75
2022-09-21T07:32:34.627Z,388.12
2022-09-21T07:33:36.122Z,286.88
2022-09-21T07:34:34.619Z,292.50
2022-09-21T07:35:34.583Z,320.62
2022-09-21T07:36:34.572Z,343.12
2022-09-21T07:37:34.569Z,393.75
2022-09-21T07:38:34.582Z,1130.62
2022-09-21T07:39:34.540Z,438.75
2022-09-21T07:40:34.603Z,292.50
2022-09-21T07:41:34.516Z,303.75
2022-09-21T07:42:34.516Z,596.25
2022-09-21T07:43:34.513Z,444.38
2022-09-21T07:44:34.486Z,517.50
2022-09-21T07:45:34.538Z,776.25
2022-09-21T07:46:34.493Z,421.88
2022-09-21T07:47:34.465Z,421.88
2022-09-21T07:48:34.442Z,2345.62
2022-09-21T07:49:34.431Z,1085.62
2022-09-21T07:50:34.421Z,438.75
2022-09-21T07:51:34.405Z,450.00
2022-09-21T07:52:34.417Z,618.75
2022-09-21T07:53:34.387Z,900.00
2022-09-21T07:54:34.391Z,832.50
2022-09-21T07:55:34.363Z,770.62
2022-09-21T07:56:34.356Z,399.38
2022-09-21T07:57:34.353Z,371.25
2022-09-21T07:58:34.332Z,388.12
2022-09-21T07:59:34.340Z,371.25
2022-09-21T08:00:34.365Z,945.00
2022-09-21T08:01:34.299Z,697.50
2022-09-21T08:02:34.401Z,461.25
2022-09-21T08:03:34.278Z,433.12
2022-09-21T08:04:34.287Z,961.88
2022-09-21T08:05:34.275Z,393.75
2022-09-21T08:06:34.248Z,388.12
2022-09-21T08:07:34.248Z,416.25
2022-09-21T08:08:34.227Z,933.75
2022-09-21T08:09:34.214Z,421.88
2022-09-21T08:10:34.202Z,444.38
2022-09-21T08:11:34.190Z,410.62
2022-09-21T08:12:34.195Z,410.62
2022-09-21T08:13:34.169Z,376.88
2022-09-21T08:14:34.159Z,360.00
2022-09-21T08:15:50.323Z,360.00
2022-09-21T08:16:35.862Z,365.62
2022-09-21T08:17:34.138Z,348.75
2022-09-21T08:18:34.119Z,365.62
2022-09-21T08:19:34.113Z,360.00
2022-09-21T08:20:34.095Z,416.25
2022-09-21T08:21:34.087Z,388.12
2022-09-21T08:22:34.097Z,354.38
2022-09-21T08:23:34.063Z,348.75
2022-09-21T08:24:34.052Z,348.75
2022-09-21T08:25:34.040Z,326.25
2022-09-21T08:26:34.030Z,309.38
2022-09-21T08:27:34.046Z,309.38
2022-09-21T08:28:34.010Z,309.38
2022-09-21T08:29:33.996Z,303.75
2022-09-21T08:30:33.987Z,292.50
2022-09-21T08:31:34.148Z,303.75
2022-09-21T08:32:50.628Z,337.50
2022-09-21T08:33:34.955Z,281.25
2022-09-21T08:34:33.943Z,264.38
2022-09-21T08:35:33.935Z,247.50
2022-09-21T08:36:33.922Z,236.25
2022-09-21T08:37:33.920Z,286.88
2022-09-21T08:38:33.898Z,258.75
2022-09-21T08:39:33.890Z,241.88
2022-09-21T08:40:33.943Z,247.50
2022-09-21T08:41:33.867Z,247.50
2022-09-21T08:42:33.864Z,264.38
2022-09-21T08:43:33.847Z,298.12
2022-09-21T08:44:33.834Z,714.38
2022-09-21T08:45:33.825Z,928.12
2022-09-21T08:46:33.851Z,371.25
2022-09-21T08:47:33.830Z,331.88
2022-09-21T08:48:36.852Z,360.00
2022-09-21T08:49:33.783Z,371.25
2022-09-21T08:50:33.772Z,371.25
2022-09-21T08:51:33.759Z,382.50
2022-09-21T08:52:33.760Z,556.88
2022-09-21T08:53:33.737Z,663.75
2022-09-21T08:54:33.726Z,427.50
2022-09-21T08:55:33.717Z,421.88
2022-09-21T08:57:00.624Z,450.00
2022-09-21T08:57:34.708Z,450.00
2022-09-21T08:58:33.686Z,427.50
2022-09-21T08:59:33.672Z,528.75
2022-09-21T09:00:33.677Z,973.12
2022-09-21T09:01:33.736Z,551.25
2022-09-21T09:02:33.653Z,630.00
2022-09-21T09:03:33.686Z,838.12
2022-09-21T09:04:33.618Z,590.62
2022-09-21T09:05:33.613Z,523.12
2022-09-21T09:06:33.596Z,669.38
2022-09-21T09:07:33.615Z,933.75
2022-09-21T09:08:33.574Z,461.25
2022-09-21T09:09:33.566Z,466.88
2022-09-21T09:10:33.554Z,450.00
2022-09-21T09:11:33.545Z,455.62
2022-09-21T09:12:33.543Z,478.12
2022-09-21T09:13:33.526Z,500.62
2022-09-21T09:14:33.512Z,562.50
2022-09-21T09:15:33.501Z,928.12
2022-09-21T09:16:33.519Z,1316.25
2022-09-21T09:17:33.494Z,624.38
2022-09-21T09:18:33.466Z,545.62
2022-09-21T09:19:33.477Z,562.50
2022-09-21T09:20:33.447Z,624.38
2022-09-21T09:21:33.440Z,810.00
2022-09-21T09:22:33.442Z,635.62
2022-09-21T09:23:33.420Z,1209.38
2022-09-21T09:24:33.406Z,911.25
2022-09-21T09:25:33.402Z,894.38
2022-09-21T09:26:33.382Z,1276.88
2022-09-21T09:27:33.385Z,866.25
2022-09-21T09:28:33.362Z,798.75
2022-09-21T09:29:33.353Z,3313.12
2022-09-21T09:30:33.341Z,1912.50
2022-09-21T09:31:33.406Z,928.12
2022-09-21T09:32:33.328Z,1282.50
2022-09-21T09:33:33.311Z,742.50
2022-09-21T09:34:33.303Z,855.00
2022-09-21T09:35:33.313Z,2525.62
2022-09-21T09:36:56.861Z,1006.88
2022-09-21T09:37:34.275Z,905.62
2022-09-21T09:38:33.256Z,1653.75
2022-09-21T09:39:33.255Z,1248.75
2022-09-21T09:40:33.314Z,1237.50
2022-09-21T09:41:33.232Z,2025.00
2022-09-21T09:42:33.278Z,1001.25
2022-09-21T09:43:33.198Z,2542.50
2022-09-21T09:44:33.199Z,1068.75
2022-09-21T09:45:33.178Z,720.00
2022-09-21T09:46:33.222Z,3549.38
2022-09-21T09:47:33.167Z,3425.62
2022-09-21T09:48:33.142Z,3493.12
2022-09-21T09:49:33.137Z,3408.75
2022-09-21T09:50:33.124Z,3178.12
2022-09-21T09:51:33.142Z,3211.88
2022-09-21T09:52:33.136Z,3436.88
2022-09-21T09:53:33.092Z,3324.38
2022-09-21T09:54:33.094Z,3234.38
2022-09-21T09:55:33.076Z,3183.75
2022-09-21T09:56:33.084Z,3189.38
2022-09-21T09:57:33.051Z,3369.38
2022-09-21T09:58:33.039Z,3414.38
2022-09-21T09:59:33.033Z,3363.75
2022-09-21T10:00:33.017Z,3318.75
2022-09-21T10:01:33.061Z,3301.88
2022-09-21T10:02:32.999Z,3273.75
2022-09-21T10:03:32.991Z,3144.38
2022-09-21T10:04:33.024Z,3037.50
2022-09-21T10:05:32.969Z,3071.25
2022-09-21T10:06:32.973Z,3082.50
2022-09-21T10:07:32.971Z,3082.50
2022-09-21T10:08:32.946Z,3195.00
2022-09-21T10:09:32.945Z,3155.62
2022-09-21T10:10:32.919Z,3020.62
2022-09-21T10:11:32.920Z,3211.88
2022-09-21T10:12:32.896Z,3313.12
2022-09-21T10:13:32.888Z,3465.00
2022-09-21T10:14:32.909Z,3301.88
2022-09-21T10:15:33.018Z,3268.12
2022-09-21T10:16:32.904Z,3166.88
2022-09-21T10:17:32.849Z,3065.62
2022-09-21T10:18:32.839Z,3211.88
2022-09-21T10:19:32.829Z,3166.88
2022-09-21T10:20:32.820Z,2874.38
2022-09-21T10:21:32.821Z,2851.88
2022-09-21T10:22:32.799Z,3093.75
2022-09-21T10:23:32.810Z,3133.12
2022-09-21T10:24:32.778Z,309.38
2022-09-21T10:25:35.790Z,236.25
2022-09-21T10:26:33.851Z,225.00
2022-09-21T10:27:32.756Z,208.12
2022-09-21T10:28:32.745Z,191.25
2022-09-21T10:29:32.734Z,180.00
2022-09-21T10:30:32.728Z,168.75
2022-09-21T10:31:32.793Z,163.12
2022-09-21T10:32:32.703Z,174.38
2022-09-21T10:33:32.690Z,1440.00
2022-09-21T10:34:32.681Z,360.00
2022-09-21T10:35:32.669Z,247.50
2022-09-21T10:36:32.669Z,225.00
2022-09-21T10:37:32.649Z,219.38
2022-09-21T10:38:32.637Z,219.38
2022-09-21T10:39:32.647Z,225.00
2022-09-21T10:40:32.649Z,236.25
2022-09-21T10:41:32.606Z,230.62
2022-09-21T10:42:32.595Z,225.00
2022-09-21T10:43:34.752Z,219.38
2022-09-21T10:44:32.593Z,213.75
2022-09-21T10:45:32.566Z,247.50
2022-09-21T10:46:32.662Z,258.75
2022-09-21T10:47:32.546Z,196.88
2022-09-21T10:48:32.533Z,180.00
2022-09-21T10:49:32.521Z,174.38
2022-09-21T10:50:32.512Z,168.75
2022-09-21T10:51:32.518Z,202.50
2022-09-21T10:52:32.489Z,213.75
2022-09-21T10:53:32.487Z,225.00
2022-09-21T10:54:32.466Z,241.88
2022-09-21T10:55:32.490Z,253.12
2022-09-21T10:56:32.445Z,270.00
2022-09-21T10:57:32.451Z,241.88
2022-09-21T10:58:32.432Z,230.62
2022-09-21T10:59:32.413Z,208.12
2022-09-21T11:00:32.417Z,236.25
2022-09-21T11:01:32.439Z,225.00
2022-09-21T11:02:32.453Z,270.00
2022-09-21T11:03:32.373Z,281.25
2022-09-21T11:04:32.356Z,258.75
2022-09-21T11:05:32.367Z,264.38
2022-09-21T11:06:32.339Z,247.50
2022-09-21T11:07:32.334Z,230.62
2022-09-21T11:08:32.314Z,208.12
2022-09-21T11:09:32.314Z,185.62
2022-09-21T11:10:34.513Z,180.00
2022-09-21T11:11:32.346Z,140.62
2022-09-21T11:12:32.271Z,151.88
2022-09-21T11:13:32.285Z,168.75
2022-09-21T11:14:32.254Z,180.00
2022-09-21T11:15:32.308Z,191.25
2022-09-21T11:16:32.263Z,196.88
2022-09-21T11:17:32.224Z,202.50
2022-09-21T11:18:32.208Z,208.12
2022-09-21T11:19:32.205Z,219.38
2022-09-21T11:20:32.197Z,213.75
2022-09-21T11:21:32.192Z,213.75
2022-09-21T11:22:32.167Z,208.12
2022-09-21T11:23:32.157Z,208.12
2022-09-21T11:24:32.148Z,168.75
2022-09-21T11:25:32.148Z,163.12
2022-09-21T11:26:32.200Z,168.75
2022-09-21T11:27:32.164Z,174.38
2022-09-21T11:28:32.102Z,191.25
2022-09-21T11:29:32.092Z,208.12
2022-09-21T11:30:32.100Z,213.75
2022-09-21T11:31:32.074Z,202.50
2022-09-21T11:32:32.063Z,185.62
2022-09-21T11:33:32.056Z,163.12
2022-09-21T11:34:32.038Z,157.50
2022-09-21T11:35:32.040Z,151.88
2022-09-21T11:36:32.020Z,140.62
2022-09-21T11:37:32.008Z,129.38
2022-09-21T11:38:34.343Z,112.50
2022-09-21T11:39:31.994Z,106.88
2022-09-21T11:40:32.019Z,106.88
2022-09-21T11:41:31.981Z,112.50
2022-09-21T11:42:31.951Z,112.50
2022-09-21T11:43:31.982Z,123.75
2022-09-21T11:44:31.935Z,140.62
2022-09-21T11:45:31.935Z,157.50
2022-09-21T11:46:31.988Z,191.25
2022-09-21T11:47:31.902Z,174.38
2022-09-21T11:48:31.887Z,202.50
2022-09-21T11:49:31.882Z,208.12
2022-09-21T11:50:32.070Z,196.88
2022-09-21T11:51:31.856Z,208.12
2022-09-21T11:52:31.852Z,225.00
2022-09-21T11:53:31.836Z,225.00
2022-09-21T11:54:31.825Z,270.00
2022-09-21T11:55:31.882Z,286.88
2022-09-21T11:56:31.888Z,275.62
2022-09-21T11:57:31.790Z,225.00
2022-09-21T11:58:31.778Z,236.25
2022-09-21T11:59:31.788Z,230.62
2022-09-21T12:00:31.770Z,191.25
2022-09-21T12:01:31.749Z,174.38
2022-09-21T12:02:32.002Z,168.75
2022-09-21T12:03:31.730Z,168.75
2022-09-21T12:04:31.729Z,180.00
2022-09-21T12:05:31.709Z,180.00
2022-09-21T12:06:31.711Z,185.62
2022-09-21T12:07:31.702Z,180.00
2022-09-21T12:08:31.711Z,168.75
2022-09-21T12:09:31.663Z,157.50
2022-09-21T12:10:31.657Z,140.62
2022-09-21T12:11:31.666Z,129.38
2022-09-21T12:12:31.631Z,118.12
2022-09-21T12:13:31.628Z,112.50
2022-09-21T12:14:31.641Z,106.88
2022-09-21T12:15:31.613Z,101.25
2022-09-21T12:16:31.637Z,95.62
2022-09-21T12:17:40.807Z,90.00
2022-09-21T12:18:31.564Z,95.62
2022-09-21T12:19:31.556Z,95.62
2022-09-21T12:20:31.542Z,90.00
2022-09-21T12:21:31.547Z,90.00
2022-09-21T12:22:31.521Z,95.62
2022-09-21T12:23:31.511Z,101.25
2022-09-21T12:24:32.100Z,118.12
2022-09-21T12:25:31.491Z,123.75
2022-09-21T12:26:31.492Z,140.62
2022-09-21T12:27:31.470Z,146.25
2022-09-21T12:28:31.455Z,163.12
2022-09-21T12:29:31.444Z,191.25
2022-09-21T12:30:31.536Z,196.88
2022-09-21T12:31:31.627Z,191.25
2022-09-21T12:32:31.429Z,185.62
2022-09-21T12:33:31.404Z,180.00
2022-09-21T12:34:31.392Z,174.38
2022-09-21T12:35:31.381Z,151.88
2022-09-21T12:36:31.587Z,163.12
2022-09-21T12:37:31.359Z,135.00
2022-09-21T12:39:31.341Z,135.00
2022-09-21T12:40:31.374Z,135.00
2022-09-21T12:41:31.334Z,129.38
2022-09-21T12:42:31.424Z,129.38
2022-09-21T12:43:31.299Z,135.00
2022-09-21T12:44:31.282Z,140.62
2022-09-21T12:45:31.273Z,123.75
2022-09-21T12:46:31.358Z,112.50
2022-09-21T12:47:31.269Z,112.50
2022-09-21T12:48:31.245Z,118.12
2022-09-21T12:49:31.230Z,123.75
2022-09-21T12:50:31.219Z,123.75